Decoded Metar for KOLU (COLUMBUS MUNI in NE, USA) (IATA:OLU) | Meteo·Mobile Aviation Weather
aviador You're here:

KOLU Decoded Metar

COLUMBUS MUNI in NE, USA
Report Time2019-02-22 23:17:00
UTC Time2019-02-23 00:35:25
Flight Rules Old
Wind100° at 09 kt
W.Decomp.*RWY 14: 6.0 kt HW 6.7 kt LCW
RWY 02: 2.8 kt HW 8.6 kt RCW
W.Rank100° ranks 21
Current wind is above 100° avg. (6.3)
Visibility9999 m
Phenomena:N/A
Clouds:Broken 024 Hf
Broken 055 Hf
Overcast 080 Hf
Expected CloudBase > 2,000 ft AGL from Temp-Dew spread
Ceiling2,400 ft
Temp-1°C (ISA -13)
Dew Point-6°C (69% RH)
AAT-6.9°C
QNH1018 hPa
Density Alt-269 ft
Elevation1,444 ft
Report Wrong Elevation
Raw Report
KOLU 222317Z AUTO 10009KT 10SM BKN024 BKN055 OVC080 M01/M06 A3005
RMK AO2 FZRANO=

Extra information for KOLU:More info

Metar Taf Metar & Taf Last 4 Metars F.Rules Stats Wind Profile Meteogram Temp Stats Airport Information Weather charts Add Link Nearby VenuesMetar ALERT Operation Metar Decoded Social comments

AIRNAV info for KOLU